sensor_id;sensor_type;location;lat;lon;timestamp;P1;durP1;ratioP1;P2;durP2;ratioP2
3571;SDS011;7958;53.024;12.970;2024-02-15T00:02:01;14.10;;;9.47;;
3571;SDS011;7958;53.024;12.970;2024-02-15T00:04:27;14.63;;;9.57;;
3571;SDS011;7958;53.024;12.970;2024-02-15T00:06:54;14.07;;;10.57;;
3571;SDS011;7958;53.024;12.970;2024-02-15T00:09:20;17.53;;;10.83;;
3571;SDS011;7958;53.024;12.970;2024-02-15T00:11:47;13.73;;;9.50;;
3571;SDS011;7958;53.024;12.970;2024-02-15T00:14:13;13.50;;;9.80;;
3571;SDS011;7958;53.024;12.970;2024-02-15T00:16:39;18.50;;;10.53;;
3571;SDS011;7958;53.024;12.970;2024-02-15T00:19:07;13.00;;;9.93;;
3571;SDS011;7958;53.024;12.970;2024-02-15T00:21:34;12.83;;;10.43;;
3571;SDS011;7958;53.024;12.970;2024-02-15T00:24:01;22.23;;;11.20;;
3571;SDS011;7958;53.024;12.970;2024-02-15T00:26:27;12.87;;;10.53;;
3571;SDS011;7958;53.024;12.970;2024-02-15T00:28:53;15.20;;;10.30;;
3571;SDS011;7958;53.024;12.970;2024-02-15T00:31:20;12.03;;;10.10;;
3571;SDS011;7958;53.024;12.970;2024-02-15T00:33:46;17.87;;;9.97;;
3571;SDS011;7958;53.024;12.970;2024-02-15T00:36:14;14.13;;;9.47;;
3571;SDS011;7958;53.024;12.970;2024-02-15T00:38:41;12.70;;;9.83;;
3571;SDS011;7958;53.024;12.970;2024-02-15T00:41:08;14.00;;;10.57;;
3571;SDS011;7958;53.024;12.970;2024-02-15T00:43:35;13.20;;;9.53;;
3571;SDS011;7958;53.024;12.970;2024-02-15T00:46:01;14.40;;;9.50;;
3571;SDS011;7958;53.024;12.970;2024-02-15T00:48:28;12.50;;;10.00;;
3571;SDS011;7958;53.024;12.970;2024-02-15T00:50:54;14.33;;;10.20;;
3571;SDS011;7958;53.024;12.970;2024-02-15T00:53:22;16.00;;;9.20;;
3571;SDS011;7958;53.024;12.970;2024-02-15T00:55:48;13.13;;;9.67;;
3571;SDS011;7958;53.024;12.970;2024-02-15T00:58:15;16.30;;;10.03;;
3571;SDS011;7958;53.024;12.970;2024-02-15T01:00:41;12.00;;;9.43;;
3571;SDS011;7958;53.024;12.970;2024-02-15T01:03:07;14.70;;;10.10;;
3571;SDS011;7958;53.024;12.970;2024-02-15T01:05:34;14.03;;;9.43;;
3571;SDS011;7958;53.024;12.970;2024-02-15T01:08:00;19.57;;;10.20;;
3571;SDS011;7958;53.024;12.970;2024-02-15T01:10:28;15.90;;;10.23;;
3571;SDS011;7958;53.024;12.970;2024-02-15T01:12:54;11.67;;;9.27;;
3571;SDS011;7958;53.024;12.970;2024-02-15T01:15:20;14.73;;;10.87;;
3571;SDS011;7958;53.024;12.970;2024-02-15T01:17:47;15.80;;;10.30;;
3571;SDS011;7958;53.024;12.970;2024-02-15T01:20:13;13.93;;;10.37;;
3571;SDS011;7958;53.024;12.970;2024-02-15T01:22:40;14.77;;;10.30;;
3571;SDS011;7958;53.024;12.970;2024-02-15T01:25:06;14.90;;;10.50;;
3571;SDS011;7958;53.024;12.970;2024-02-15T01:27:35;13.70;;;10.77;;
3571;SDS011;7958;53.024;12.970;2024-02-15T01:30:01;15.83;;;10.03;;
3571;SDS011;7958;53.024;12.970;2024-02-15T01:32:29;14.50;;;11.07;;
3571;SDS011;7958;53.024;12.970;2024-02-15T01:34:56;19.23;;;11.60;;
3571;SDS011;7958;53.024;12.970;2024-02-15T01:37:22;12.53;;;10.20;;
3571;SDS011;7958;53.024;12.970;2024-02-15T01:39:49;13.87;;;10.70;;
3571;SDS011;7958;53.024;12.970;2024-02-15T01:42:16;16.50;;;10.60;;
3571;SDS011;7958;53.024;12.970;2024-02-15T01:44:44;14.03;;;10.30;;
3571;SDS011;7958;53.024;12.970;2024-02-15T01:47:12;13.27;;;10.13;;
3571;SDS011;7958;53.024;12.970;2024-02-15T01:49:39;12.30;;;10.37;;
3571;SDS011;7958;53.024;12.970;2024-02-15T01:52:06;15.40;;;10.07;;
3571;SDS011;7958;53.024;12.970;2024-02-15T01:54:33;13.07;;;9.87;;
3571;SDS011;7958;53.024;12.970;2024-02-15T01:57:00;13.30;;;9.63;;
3571;SDS011;7958;53.024;12.970;2024-02-15T01:59:28;18.27;;;11.20;;
3571;SDS011;7958;53.024;12.970;2024-02-15T02:01:55;14.40;;;10.90;;
3571;SDS011;7958;53.024;12.970;2024-02-15T02:04:22;14.73;;;10.87;;
3571;SDS011;7958;53.024;12.970;2024-02-15T02:06:48;15.77;;;10.50;;
3571;SDS011;7958;53.024;12.970;2024-02-15T02:09:14;14.57;;;10.63;;
3571;SDS011;7958;53.024;12.970;2024-02-15T02:11:41;16.00;;;10.40;;
3571;SDS011;7958;53.024;12.970;2024-02-15T02:14:08;12.13;;;10.00;;
3571;SDS011;7958;53.024;12.970;2024-02-15T02:16:34;13.30;;;10.90;;
3571;SDS011;7958;53.024;12.970;2024-02-15T02:19:03;16.40;;;11.50;;
3571;SDS011;7958;53.024;12.970;2024-02-15T02:21:34;15.47;;;10.97;;
3571;SDS011;7958;53.024;12.970;2024-02-15T02:24:00;16.47;;;11.37;;
3571;SDS011;7958;53.024;12.970;2024-02-15T02:26:33;13.43;;;10.83;;
3571;SDS011;7958;53.024;12.970;2024-02-15T02:28:59;18.00;;;10.60;;
3571;SDS011;7958;53.024;12.970;2024-02-15T02:31:29;15.03;;;11.10;;
3571;SDS011;7958;53.024;12.970;2024-02-15T02:33:59;15.73;;;10.90;;
3571;SDS011;7958;53.024;12.970;2024-02-15T02:36:26;24.80;;;11.80;;
3571;SDS011;7958;53.024;12.970;2024-02-15T02:38:54;15.20;;;11.17;;
3571;SDS011;7958;53.024;12.970;2024-02-15T02:41:20;19.20;;;11.47;;
3571;SDS011;7958;53.024;12.970;2024-02-15T02:43:49;18.30;;;11.60;;
3571;SDS011;7958;53.024;12.970;2024-02-15T02:46:16;15.30;;;11.50;;
3571;SDS011;7958;53.024;12.970;2024-02-15T02:48:42;16.70;;;11.77;;
3571;SDS011;7958;53.024;12.970;2024-02-15T02:51:08;21.33;;;11.57;;
3571;SDS011;7958;53.024;12.970;2024-02-15T02:53:35;16.43;;;11.83;;
3571;SDS011;7958;53.024;12.970;2024-02-15T02:56:01;18.40;;;12.43;;
3571;SDS011;7958;53.024;12.970;2024-02-15T02:58:28;17.17;;;12.37;;
3571;SDS011;7958;53.024;12.970;2024-02-15T03:00:56;16.63;;;11.77;;
3571;SDS011;7958;53.024;12.970;2024-02-15T03:03:25;18.23;;;12.30;;
3571;SDS011;7958;53.024;12.970;2024-02-15T03:05:51;14.33;;;10.50;;
3571;SDS011;7958;53.024;12.970;2024-02-15T03:08:19;16.77;;;11.43;;
3571;SDS011;7958;53.024;12.970;2024-02-15T03:10:45;22.63;;;12.90;;
3571;SDS011;7958;53.024;12.970;2024-02-15T03:13:12;16.60;;;11.97;;
3571;SDS011;7958;53.024;12.970;2024-02-15T03:15:38;22.27;;;11.20;;
3571;SDS011;7958;53.024;12.970;2024-02-15T03:18:08;16.60;;;11.30;;
3571;SDS011;7958;53.024;12.970;2024-02-15T03:20:36;15.30;;;10.73;;
3571;SDS011;7958;53.024;12.970;2024-02-15T03:23:03;16.80;;;11.00;;
3571;SDS011;7958;53.024;12.970;2024-02-15T03:25:29;15.37;;;11.13;;
3571;SDS011;7958;53.024;12.970;2024-02-15T03:27:56;15.63;;;10.30;;
3571;SDS011;7958;53.024;12.970;2024-02-15T03:30:23;14.63;;;10.70;;
3571;SDS011;7958;53.024;12.970;2024-02-15T03:32:50;15.40;;;10.40;;
3571;SDS011;7958;53.024;12.970;2024-02-15T03:35:19;16.77;;;10.70;;
3571;SDS011;7958;53.024;12.970;2024-02-15T03:37:47;18.00;;;11.47;;
3571;SDS011;7958;53.024;12.970;2024-02-15T03:40:16;17.17;;;11.27;;
3571;SDS011;7958;53.024;12.970;2024-02-15T03:42:42;15.10;;;10.63;;
3571;SDS011;7958;53.024;12.970;2024-02-15T03:45:09;15.77;;;9.47;;
3571;SDS011;7958;53.024;12.970;2024-02-15T03:47:36;14.40;;;10.30;;
3571;SDS011;7958;53.024;12.970;2024-02-15T03:50:03;11.23;;;8.80;;
3571;SDS011;7958;53.024;12.970;2024-02-15T03:52:31;12.23;;;9.50;;
3571;SDS011;7958;53.024;12.970;2024-02-15T03:54:57;11.40;;;8.37;;
3571;SDS011;7958;53.024;12.970;2024-02-15T03:57:24;15.97;;;9.00;;
3571;SDS011;7958;53.024;12.970;2024-02-15T03:59:51;16.13;;;9.00;;
3571;SDS011;7958;53.024;12.970;2024-02-15T04:02:18;14.80;;;9.60;;
3571;SDS011;7958;53.024;12.970;2024-02-15T04:04:44;11.77;;;9.07;;
3571;SDS011;7958;53.024;12.970;2024-02-15T04:07:12;12.37;;;9.60;;
3571;SDS011;7958;53.024;12.970;2024-02-15T04:09:40;12.70;;;8.40;;
3571;SDS011;7958;53.024;12.970;2024-02-15T04:12:07;14.50;;;9.50;;
3571;SDS011;7958;53.024;12.970;2024-02-15T04:14:33;16.20;;;9.90;;
3571;SDS011;7958;53.024;12.970;2024-02-15T04:16:59;14.90;;;10.27;;
3571;SDS011;7958;53.024;12.970;2024-02-15T04:19:26;16.03;;;10.90;;
3571;SDS011;7958;53.024;12.970;2024-02-15T04:21:53;18.03;;;10.27;;
3571;SDS011;7958;53.024;12.970;2024-02-15T04:24:20;16.50;;;10.00;;
3571;SDS011;7958;53.024;12.970;2024-02-15T04:26:48;17.13;;;11.53;;
3571;SDS011;7958;53.024;12.970;2024-02-15T04:29:16;21.63;;;11.23;;
3571;SDS011;7958;53.024;12.970;2024-02-15T04:31:45;18.77;;;11.57;;
3571;SDS011;7958;53.024;12.970;2024-02-15T04:34:14;17.60;;;12.00;;
3571;SDS011;7958;53.024;12.970;2024-02-15T04:36:40;19.57;;;11.07;;
3571;SDS011;7958;53.024;12.970;2024-02-15T04:39:07;17.13;;;11.17;;
3571;SDS011;7958;53.024;12.970;2024-02-15T04:41:35;19.63;;;11.60;;
3571;SDS011;7958;53.024;12.970;2024-02-15T04:44:05;20.63;;;13.03;;
3571;SDS011;7958;53.024;12.970;2024-02-15T04:46:33;19.30;;;12.10;;
3571;SDS011;7958;53.024;12.970;2024-02-15T04:49:00;21.07;;;12.60;;
3571;SDS011;7958;53.024;12.970;2024-02-15T04:51:28;19.03;;;13.03;;
3571;SDS011;7958;53.024;12.970;2024-02-15T04:53:54;17.60;;;12.50;;
3571;SDS011;7958;53.024;12.970;2024-02-15T04:56:22;22.77;;;13.43;;
3571;SDS011;7958;53.024;12.970;2024-02-15T04:58:49;24.00;;;14.07;;
3571;SDS011;7958;53.024;12.970;2024-02-15T05:01:17;22.43;;;12.27;;
3571;SDS011;7958;53.024;12.970;2024-02-15T05:03:43;22.13;;;11.93;;
3571;SDS011;7958;53.024;12.970;2024-02-15T05:06:10;19.47;;;11.97;;
3571;SDS011;7958;53.024;12.970;2024-02-15T05:08:38;17.43;;;12.10;;
3571;SDS011;7958;53.024;12.970;2024-02-15T05:11:07;22.97;;;12.63;;
3571;SDS011;7958;53.024;12.970;2024-02-15T05:13:39;24.50;;;12.30;;
3571;SDS011;7958;53.024;12.970;2024-02-15T05:16:05;22.60;;;13.50;;
3571;SDS011;7958;53.024;12.970;2024-02-15T05:18:33;19.37;;;11.90;;
3571;SDS011;7958;53.024;12.970;2024-02-15T05:21:00;19.50;;;12.00;;
3571;SDS011;7958;53.024;12.970;2024-02-15T05:23:28;23.63;;;13.33;;
3571;SDS011;7958;53.024;12.970;2024-02-15T05:25:54;22.23;;;12.23;;
3571;SDS011;7958;53.024;12.970;2024-02-15T05:28:21;18.43;;;13.13;;
3571;SDS011;7958;53.024;12.970;2024-02-15T05:31:07;21.30;;;12.50;;
3571;SDS011;7958;53.024;12.970;2024-02-15T05:33:36;19.10;;;12.17;;
3571;SDS011;7958;53.024;12.970;2024-02-15T05:36:03;16.60;;;10.93;;
3571;SDS011;7958;53.024;12.970;2024-02-15T05:38:30;20.30;;;12.07;;
3571;SDS011;7958;53.024;12.970;2024-02-15T05:40:56;21.40;;;11.73;;
3571;SDS011;7958;53.024;12.970;2024-02-15T05:43:23;19.50;;;11.57;;
3571;SDS011;7958;53.024;12.970;2024-02-15T05:45:50;17.53;;;11.23;;
3571;SDS011;7958;53.024;12.970;2024-02-15T05:48:17;24.40;;;11.20;;
3571;SDS011;7958;53.024;12.970;2024-02-15T05:50:45;16.73;;;11.03;;
3571;SDS011;7958;53.024;12.970;2024-02-15T05:53:12;14.53;;;9.87;;
3571;SDS011;7958;53.024;12.970;2024-02-15T05:55:38;18.30;;;11.43;;
3571;SDS011;7958;53.024;12.970;2024-02-15T05:58:09;19.70;;;12.27;;
3571;SDS011;7958;53.024;12.970;2024-02-15T06:00:36;17.57;;;11.33;;
3571;SDS011;7958;53.024;12.970;2024-02-15T06:03:03;18.47;;;11.40;;
3571;SDS011;7958;53.024;12.970;2024-02-15T06:05:31;18.77;;;11.13;;
3571;SDS011;7958;53.024;12.970;2024-02-15T06:07:58;19.80;;;11.30;;
3571;SDS011;7958;53.024;12.970;2024-02-15T06:10:25;19.70;;;11.17;;
3571;SDS011;7958;53.024;12.970;2024-02-15T06:12:51;20.90;;;12.17;;
3571;SDS011;7958;53.024;12.970;2024-02-15T06:15:18;18.57;;;10.90;;
3571;SDS011;7958;53.024;12.970;2024-02-15T06:17:45;19.43;;;11.60;;
3571;SDS011;7958;53.024;12.970;2024-02-15T06:20:12;20.40;;;11.23;;
3571;SDS011;7958;53.024;12.970;2024-02-15T06:22:40;21.07;;;12.60;;
3571;SDS011;7958;53.024;12.970;2024-02-15T06:25:08;20.07;;;10.60;;
3571;SDS011;7958;53.024;12.970;2024-02-15T06:27:36;20.73;;;12.40;;
3571;SDS011;7958;53.024;12.970;2024-02-15T06:30:06;21.43;;;11.57;;
3571;SDS011;7958;53.024;12.970;2024-02-15T06:32:47;19.63;;;11.90;;
3571;SDS011;7958;53.024;12.970;2024-02-15T06:35:31;22.50;;;12.07;;
3571;SDS011;7958;53.024;12.970;2024-02-15T06:38:15;21.50;;;10.93;;
3571;SDS011;7958;53.024;12.970;2024-02-15T06:40:56;17.87;;;11.20;;
3571;SDS011;7958;53.024;12.970;2024-02-15T06:43:24;23.20;;;12.77;;
3571;SDS011;7958;53.024;12.970;2024-02-15T06:45:51;22.70;;;13.00;;
3571;SDS011;7958;53.024;12.970;2024-02-15T06:48:18;21.47;;;12.70;;
3571;SDS011;7958;53.024;12.970;2024-02-15T06:50:47;21.50;;;11.60;;
3571;SDS011;7958;53.024;12.970;2024-02-15T06:53:14;21.87;;;12.47;;
3571;SDS011;7958;53.024;12.970;2024-02-15T06:55:40;21.63;;;11.97;;
3571;SDS011;7958;53.024;12.970;2024-02-15T06:58:08;21.27;;;12.53;;
3571;SDS011;7958;53.024;12.970;2024-02-15T07:00:34;19.17;;;11.33;;
3571;SDS011;7958;53.024;12.970;2024-02-15T07:03:01;20.23;;;11.43;;
3571;SDS011;7958;53.024;12.970;2024-02-15T07:05:29;22.70;;;12.40;;
3571;SDS011;7958;53.024;12.970;2024-02-15T07:07:56;22.27;;;12.57;;
3571;SDS011;7958;53.024;12.970;2024-02-15T07:10:22;19.13;;;11.27;;
3571;SDS011;7958;53.024;12.970;2024-02-15T07:12:48;20.37;;;11.87;;
3571;SDS011;7958;53.024;12.970;2024-02-15T07:15:16;20.47;;;11.90;;
3571;SDS011;7958;53.024;12.970;2024-02-15T07:17:43;19.73;;;11.27;;
3571;SDS011;7958;53.024;12.970;2024-02-15T07:20:11;22.03;;;11.87;;
3571;SDS011;7958;53.024;12.970;2024-02-15T07:22:42;16.10;;;9.97;;
3571;SDS011;7958;53.024;12.970;2024-02-15T07:25:09;18.00;;;10.97;;
3571;SDS011;7958;53.024;12.970;2024-02-15T07:27:35;21.50;;;11.90;;
3571;SDS011;7958;53.024;12.970;2024-02-15T07:30:02;18.17;;;10.67;;
3571;SDS011;7958;53.024;12.970;2024-02-15T07:32:31;16.67;;;10.37;;
3571;SDS011;7958;53.024;12.970;2024-02-15T07:35:00;19.27;;;11.20;;
3571;SDS011;7958;53.024;12.970;2024-02-15T07:37:26;16.50;;;10.00;;
3571;SDS011;7958;53.024;12.970;2024-02-15T07:39:54;16.00;;;9.17;;
3571;SDS011;7958;53.024;12.970;2024-02-15T07:42:20;16.07;;;9.73;;
3571;SDS011;7958;53.024;12.970;2024-02-15T07:44:50;17.47;;;10.90;;
3571;SDS011;7958;53.024;12.970;2024-02-15T07:47:17;19.53;;;11.30;;
3571;SDS011;7958;53.024;12.970;2024-02-15T07:49:47;21.30;;;11.37;;
3571;SDS011;7958;53.024;12.970;2024-02-15T07:52:14;17.80;;;10.70;;
3571;SDS011;7958;53.024;12.970;2024-02-15T07:54:40;17.67;;;10.37;;
3571;SDS011;7958;53.024;12.970;2024-02-15T07:57:07;18.63;;;11.77;;
3571;SDS011;7958;53.024;12.970;2024-02-15T07:59:34;16.13;;;10.70;;
3571;SDS011;7958;53.024;12.970;2024-02-15T08:02:00;14.23;;;10.47;;
3571;SDS011;7958;53.024;12.970;2024-02-15T08:04:27;18.47;;;9.97;;
3571;SDS011;7958;53.024;12.970;2024-02-15T08:06:55;16.60;;;9.80;;
3571;SDS011;7958;53.024;12.970;2024-02-15T08:09:21;22.40;;;10.80;;
3571;SDS011;7958;53.024;12.970;2024-02-15T08:11:49;18.43;;;10.87;;
3571;SDS011;7958;53.024;12.970;2024-02-15T08:14:15;21.30;;;9.70;;
3571;SDS011;7958;53.024;12.970;2024-02-15T08:16:42;21.80;;;9.50;;
3571;SDS011;7958;53.024;12.970;2024-02-15T08:19:08;17.80;;;10.10;;
3571;SDS011;7958;53.024;12.970;2024-02-15T08:21:37;19.43;;;10.40;;
3571;SDS011;7958;53.024;12.970;2024-02-15T08:24:07;17.03;;;10.33;;
3571;SDS011;7958;53.024;12.970;2024-02-15T08:26:35;15.07;;;9.57;;
3571;SDS011;7958;53.024;12.970;2024-02-15T08:29:03;18.10;;;10.90;;
3571;SDS011;7958;53.024;12.970;2024-02-15T08:31:29;16.30;;;9.53;;
3571;SDS011;7958;53.024;12.970;2024-02-15T08:33:56;16.03;;;8.80;;
3571;SDS011;7958;53.024;12.970;2024-02-15T08:36:23;19.07;;;9.93;;
3571;SDS011;7958;53.024;12.970;2024-02-15T08:38:49;16.73;;;9.70;;
3571;SDS011;7958;53.024;12.970;2024-02-15T08:41:17;15.33;;;8.87;;
3571;SDS011;7958;53.024;12.970;2024-02-15T08:43:45;16.17;;;9.47;;
3571;SDS011;7958;53.024;12.970;2024-02-15T08:46:13;16.03;;;9.57;;
3571;SDS011;7958;53.024;12.970;2024-02-15T08:48:39;17.13;;;10.27;;
3571;SDS011;7958;53.024;12.970;2024-02-15T08:51:06;16.40;;;9.07;;
3571;SDS011;7958;53.024;12.970;2024-02-15T08:53:33;11.70;;;8.60;;
3571;SDS011;7958;53.024;12.970;2024-02-15T08:56:01;13.60;;;9.00;;
3571;SDS011;7958;53.024;12.970;2024-02-15T08:58:29;13.60;;;9.10;;
3571;SDS011;7958;53.024;12.970;2024-02-15T09:00:56;14.77;;;9.37;;
3571;SDS011;7958;53.024;12.970;2024-02-15T09:03:22;17.27;;;9.13;;
3571;SDS011;7958;53.024;12.970;2024-02-15T09:05:48;13.47;;;8.80;;
3571;SDS011;7958;53.024;12.970;2024-02-15T09:08:15;13.20;;;8.37;;
3571;SDS011;7958;53.024;12.970;2024-02-15T09:10:45;15.00;;;8.70;;
3571;SDS011;7958;53.024;12.970;2024-02-15T09:13:12;12.83;;;8.50;;
3571;SDS011;7958;53.024;12.970;2024-02-15T09:15:40;11.83;;;8.70;;
3571;SDS011;7958;53.024;12.970;2024-02-15T09:18:07;13.70;;;9.27;;
3571;SDS011;7958;53.024;12.970;2024-02-15T09:20:36;15.07;;;9.73;;
3571;SDS011;7958;53.024;12.970;2024-02-15T09:23:05;13.50;;;9.03;;
3571;SDS011;7958;53.024;12.970;2024-02-15T09:25:34;12.90;;;8.80;;
3571;SDS011;7958;53.024;12.970;2024-02-15T09:28:02;14.00;;;8.80;;
3571;SDS011;7958;53.024;12.970;2024-02-15T09:30:29;12.57;;;8.40;;
3571;SDS011;7958;53.024;12.970;2024-02-15T09:32:58;13.30;;;8.47;;
3571;SDS011;7958;53.024;12.970;2024-02-15T09:35:25;10.17;;;8.00;;
3571;SDS011;7958;53.024;12.970;2024-02-15T09:37:52;11.50;;;7.70;;
3571;SDS011;7958;53.024;12.970;2024-02-15T09:40:20;13.60;;;8.80;;
3571;SDS011;7958;53.024;12.970;2024-02-15T09:42:49;14.03;;;8.37;;
3571;SDS011;7958;53.024;12.970;2024-02-15T09:45:16;12.10;;;7.23;;
3571;SDS011;7958;53.024;12.970;2024-02-15T09:47:43;10.40;;;8.27;;
3571;SDS011;7958;53.024;12.970;2024-02-15T09:50:12;12.03;;;7.60;;
3571;SDS011;7958;53.024;12.970;2024-02-15T09:52:39;11.77;;;8.37;;
3571;SDS011;7958;53.024;12.970;2024-02-15T09:55:07;13.30;;;8.03;;
3571;SDS011;7958;53.024;12.970;2024-02-15T09:57:36;9.67;;;7.53;;
3571;SDS011;7958;53.024;12.970;2024-02-15T10:00:02;13.40;;;7.60;;
3571;SDS011;7958;53.024;12.970;2024-02-15T10:02:32;10.97;;;7.60;;
3571;SDS011;7958;53.024;12.970;2024-02-15T10:04:59;12.93;;;7.70;;
3571;SDS011;7958;53.024;12.970;2024-02-15T10:07:26;8.83;;;6.70;;
3571;SDS011;7958;53.024;12.970;2024-02-15T10:09:53;12.93;;;7.80;;
3571;SDS011;7958;53.024;12.970;2024-02-15T10:12:20;12.23;;;6.80;;
3571;SDS011;7958;53.024;12.970;2024-02-15T10:14:47;11.03;;;7.40;;
3571;SDS011;7958;53.024;12.970;2024-02-15T10:17:17;10.37;;;7.40;;
3571;SDS011;7958;53.024;12.970;2024-02-15T10:19:45;12.60;;;7.50;;
3571;SDS011;7958;53.024;12.970;2024-02-15T10:22:12;10.50;;;7.57;;
3571;SDS011;7958;53.024;12.970;2024-02-15T10:24:41;10.30;;;7.03;;
3571;SDS011;7958;53.024;12.970;2024-02-15T10:27:07;9.07;;;6.80;;
3571;SDS011;7958;53.024;12.970;2024-02-15T10:29:35;10.80;;;7.10;;
3571;SDS011;7958;53.024;12.970;2024-02-15T10:32:02;9.73;;;7.13;;
3571;SDS011;7958;53.024;12.970;2024-02-15T10:34:35;8.83;;;6.50;;
3571;SDS011;7958;53.024;12.970;2024-02-15T10:37:10;11.27;;;6.90;;
3571;SDS011;7958;53.024;12.970;2024-02-15T10:39:37;11.13;;;6.70;;
3571;SDS011;7958;53.024;12.970;2024-02-15T10:42:06;9.60;;;6.80;;
3571;SDS011;7958;53.024;12.970;2024-02-15T10:44:34;8.67;;;6.63;;
3571;SDS011;7958;53.024;12.970;2024-02-15T10:47:03;8.77;;;6.93;;
3571;SDS011;7958;53.024;12.970;2024-02-15T10:49:32;9.80;;;6.80;;
3571;SDS011;7958;53.024;12.970;2024-02-15T10:51:59;12.17;;;6.20;;
3571;SDS011;7958;53.024;12.970;2024-02-15T10:54:34;8.57;;;6.70;;
3571;SDS011;7958;53.024;12.970;2024-02-15T10:57:10;8.47;;;6.40;;
3571;SDS011;7958;53.024;12.970;2024-02-15T10:59:38;8.97;;;6.50;;
3571;SDS011;7958;53.024;12.970;2024-02-15T11:02:10;8.20;;;6.50;;
3571;SDS011;7958;53.024;12.970;2024-02-15T11:04:45;8.40;;;6.70;;
3571;SDS011;7958;53.024;12.970;2024-02-15T11:07:15;7.37;;;6.47;;
3571;SDS011;7958;53.024;12.970;2024-02-15T11:09:43;6.80;;;5.80;;
3571;SDS011;7958;53.024;12.970;2024-02-15T11:12:11;7.10;;;6.40;;
3571;SDS011;7958;53.024;12.970;2024-02-15T11:14:37;8.97;;;5.90;;
3571;SDS011;7958;53.024;12.970;2024-02-15T11:17:03;7.87;;;6.27;;
3571;SDS011;7958;53.024;12.970;2024-02-15T11:19:41;7.30;;;5.77;;
3571;SDS011;7958;53.024;12.970;2024-02-15T11:22:11;6.50;;;5.83;;
3571;SDS011;7958;53.024;12.970;2024-02-15T11:24:45;8.27;;;6.20;;
3571;SDS011;7958;53.024;12.970;2024-02-15T11:27:14;10.83;;;5.70;;
3571;SDS011;7958;53.024;12.970;2024-02-15T11:29:50;11.60;;;6.30;;
3571;SDS011;7958;53.024;12.970;2024-02-15T11:35:12;30.97;;;11.90;;
3571;SDS011;7958;53.024;12.970;2024-02-15T11:37:49;6.40;;;5.37;;
3571;SDS011;7958;53.024;12.970;2024-02-15T11:40:17;8.00;;;6.10;;
3571;SDS011;7958;53.024;12.970;2024-02-15T11:42:46;9.93;;;6.67;;
3571;SDS011;7958;53.024;12.970;2024-02-15T11:45:13;7.40;;;6.53;;
3571;SDS011;7958;53.024;12.970;2024-02-15T11:47:39;7.70;;;5.70;;
3571;SDS011;7958;53.024;12.970;2024-02-15T11:50:08;6.87;;;6.03;;
3571;SDS011;7958;53.024;12.970;2024-02-15T11:52:37;8.60;;;5.47;;
3571;SDS011;7958;53.024;12.970;2024-02-15T11:55:04;6.03;;;5.10;;
3571;SDS011;7958;53.024;12.970;2024-02-15T11:57:34;6.10;;;5.13;;
3571;SDS011;7958;53.024;12.970;2024-02-15T12:00:20;6.07;;;5.47;;
3571;SDS011;7958;53.024;12.970;2024-02-15T12:03:05;8.40;;;4.93;;
3571;SDS011;7958;53.024;12.970;2024-02-15T12:05:49;6.67;;;4.87;;
3571;SDS011;7958;53.024;12.970;2024-02-15T12:08:33;5.70;;;5.20;;
3571;SDS011;7958;53.024;12.970;2024-02-15T12:11:17;9.53;;;5.03;;
3571;SDS011;7958;53.024;12.970;2024-02-15T12:14:01;7.37;;;4.80;;
3571;SDS011;7958;53.024;12.970;2024-02-15T12:16:46;5.80;;;4.50;;
3571;SDS011;7958;53.024;12.970;2024-02-15T12:19:30;6.07;;;4.43;;
3571;SDS011;7958;53.024;12.970;2024-02-15T12:21:56;5.80;;;4.77;;
3571;SDS011;7958;53.024;12.970;2024-02-15T12:24:24;6.00;;;4.27;;
3571;SDS011;7958;53.024;12.970;2024-02-15T12:26:52;4.60;;;4.10;;
3571;SDS011;7958;53.024;12.970;2024-02-15T12:29:20;6.23;;;4.80;;
3571;SDS011;7958;53.024;12.970;2024-02-15T12:31:48;6.60;;;4.73;;
3571;SDS011;7958;53.024;12.970;2024-02-15T12:34:14;7.00;;;4.97;;
3571;SDS011;7958;53.024;12.970;2024-02-15T12:36:41;5.27;;;4.63;;
3571;SDS011;7958;53.024;12.970;2024-02-15T12:39:08;5.70;;;4.40;;
3571;SDS011;7958;53.024;12.970;2024-02-15T12:41:37;5.03;;;4.30;;
3571;SDS011;7958;53.024;12.970;2024-02-15T12:44:06;5.73;;;4.03;;
3571;SDS011;7958;53.024;12.970;2024-02-15T12:46:35;6.30;;;5.00;;
3571;SDS011;7958;53.024;12.970;2024-02-15T12:49:07;7.03;;;4.50;;
3571;SDS011;7958;53.024;12.970;2024-02-15T12:51:38;7.43;;;5.20;;
3571;SDS011;7958;53.024;12.970;2024-02-15T12:54:08;5.80;;;5.20;;
3571;SDS011;7958;53.024;12.970;2024-02-15T12:56:35;5.40;;;4.70;;
3571;SDS011;7958;53.024;12.970;2024-02-15T12:59:02;6.77;;;5.47;;
3571;SDS011;7958;53.024;12.970;2024-02-15T13:01:28;8.23;;;5.20;;
3571;SDS011;7958;53.024;12.970;2024-02-15T13:03:55;7.27;;;5.77;;
3571;SDS011;7958;53.024;12.970;2024-02-15T13:06:25;7.13;;;5.47;;
3571;SDS011;7958;53.024;12.970;2024-02-15T13:08:51;6.63;;;5.37;;
3571;SDS011;7958;53.024;12.970;2024-02-15T13:11:17;8.43;;;5.30;;
3571;SDS011;7958;53.024;12.970;2024-02-15T13:13:43;5.67;;;5.07;;
3571;SDS011;7958;53.024;12.970;2024-02-15T13:16:10;6.93;;;5.37;;
3571;SDS011;7958;53.024;12.970;2024-02-15T13:18:37;9.70;;;6.33;;
3571;SDS011;7958;53.024;12.970;2024-02-15T13:21:04;7.43;;;5.93;;
3571;SDS011;7958;53.024;12.970;2024-02-15T13:23:32;7.00;;;5.87;;
3571;SDS011;7958;53.024;12.970;2024-02-15T13:26:00;8.63;;;5.57;;
3571;SDS011;7958;53.024;12.970;2024-02-15T13:28:29;10.27;;;6.50;;
3571;SDS011;7958;53.024;12.970;2024-02-15T13:30:55;8.80;;;6.23;;
3571;SDS011;7958;53.024;12.970;2024-02-15T13:33:22;7.77;;;6.13;;
3571;SDS011;7958;53.024;12.970;2024-02-15T13:35:51;8.50;;;6.10;;
3571;SDS011;7958;53.024;12.970;2024-02-15T13:38:17;6.60;;;5.70;;
3571;SDS011;7958;53.024;12.970;2024-02-15T13:40:49;7.83;;;5.50;;
3571;SDS011;7958;53.024;12.970;2024-02-15T13:43:16;8.00;;;6.10;;
3571;SDS011;7958;53.024;12.970;2024-02-15T13:45:43;6.13;;;5.50;;
3571;SDS011;7958;53.024;12.970;2024-02-15T13:48:10;8.17;;;5.63;;
3571;SDS011;7958;53.024;12.970;2024-02-15T13:50:40;7.40;;;5.30;;
3571;SDS011;7958;53.024;12.970;2024-02-15T13:53:07;6.97;;;5.90;;
3571;SDS011;7958;53.024;12.970;2024-02-15T13:55:34;7.47;;;5.40;;
3571;SDS011;7958;53.024;12.970;2024-02-15T13:58:03;8.30;;;5.27;;
3571;SDS011;7958;53.024;12.970;2024-02-15T14:00:29;9.43;;;5.30;;
3571;SDS011;7958;53.024;12.970;2024-02-15T14:02:59;10.70;;;6.17;;
3571;SDS011;7958;53.024;12.970;2024-02-15T14:05:27;6.60;;;5.70;;
3571;SDS011;7958;53.024;12.970;2024-02-15T14:07:55;6.33;;;5.40;;
3571;SDS011;7958;53.024;12.970;2024-02-15T14:10:22;5.37;;;3.97;;
3571;SDS011;7958;53.024;12.970;2024-02-15T14:12:49;4.90;;;4.40;;
3571;SDS011;7958;53.024;12.970;2024-02-15T14:15:18;5.47;;;4.23;;
3571;SDS011;7958;53.024;12.970;2024-02-15T14:17:45;8.17;;;4.47;;
3571;SDS011;7958;53.024;12.970;2024-02-15T14:20:11;6.23;;;4.57;;
3571;SDS011;7958;53.024;12.970;2024-02-15T14:22:39;5.47;;;4.80;;
3571;SDS011;7958;53.024;12.970;2024-02-15T14:25:06;5.97;;;5.00;;
3571;SDS011;7958;53.024;12.970;2024-02-15T14:27:33;6.77;;;5.67;;
3571;SDS011;7958;53.024;12.970;2024-02-15T14:29:59;7.30;;;4.30;;
3571;SDS011;7958;53.024;12.970;2024-02-15T14:32:45;5.63;;;5.03;;
3571;SDS011;7958;53.024;12.970;2024-02-15T14:35:28;6.50;;;5.27;;
3571;SDS011;7958;53.024;12.970;2024-02-15T14:37:56;6.40;;;4.27;;
3571;SDS011;7958;53.024;12.970;2024-02-15T14:40:23;5.80;;;3.87;;
3571;SDS011;7958;53.024;12.970;2024-02-15T14:42:50;4.70;;;4.20;;
3571;SDS011;7958;53.024;12.970;2024-02-15T14:45:16;5.70;;;4.37;;
3571;SDS011;7958;53.024;12.970;2024-02-15T14:47:44;10.40;;;4.50;;
3571;SDS011;7958;53.024;12.970;2024-02-15T14:50:12;4.97;;;4.00;;
3571;SDS011;7958;53.024;12.970;2024-02-15T14:52:38;6.33;;;4.40;;
3571;SDS011;7958;53.024;12.970;2024-02-15T14:55:06;5.23;;;4.27;;